sensor_id;sensor_type;location;lat;lon;timestamp;pressure;altitude;pressure_sealevel;temperature;humidity
70555;BME280;58104;52.744;15.242;2023-02-22T00:01:41;100928.96;;;18.83;45.40
70555;BME280;58104;52.744;15.242;2023-02-22T00:04:06;100933.02;;;18.82;45.70
70555;BME280;58104;52.744;15.242;2023-02-22T00:06:32;100934.29;;;18.79;45.97
70555;BME280;58104;52.744;15.242;2023-02-22T00:08:57;100930.40;;;18.90;46.40
70555;BME280;58104;52.744;15.242;2023-02-22T00:11:23;100934.47;;;18.82;47.10
70555;BME280;58104;52.744;15.242;2023-02-22T00:13:48;100936.19;;;18.75;47.28
70555;BME280;58104;52.744;15.242;2023-02-22T00:16:16;100935.69;;;18.87;47.16
70555;BME280;58104;52.744;15.242;2023-02-22T00:18:39;100935.97;;;18.82;47.28
70555;BME280;58104;52.744;15.242;2023-02-22T00:21:05;100939.42;;;18.76;47.68
70555;BME280;58104;52.744;15.242;2023-02-22T00:23:30;100940.84;;;18.82;47.66
70555;BME280;58104;52.744;15.242;2023-02-22T00:25:57;100938.33;;;18.82;47.91
70555;BME280;58104;52.744;15.242;2023-02-22T00:28:21;100932.78;;;18.85;47.96
70555;BME280;58104;52.744;15.242;2023-02-22T00:30:46;100933.25;;;18.90;48.13
70555;BME280;58104;52.744;15.242;2023-02-22T00:33:12;100936.99;;;18.89;48.42
70555;BME280;58104;52.744;15.242;2023-02-22T00:35:36;100935.95;;;18.86;48.91
70555;BME280;58104;52.744;15.242;2023-02-22T00:38:02;100933.14;;;18.84;48.90
70555;BME280;58104;52.744;15.242;2023-02-22T00:40:29;100935.94;;;18.87;48.78
70555;BME280;58104;52.744;15.242;2023-02-22T00:42:53;100940.81;;;18.90;48.96
70555;BME280;58104;52.744;15.242;2023-02-22T00:45:20;100943.95;;;18.90;48.93
70555;BME280;58104;52.744;15.242;2023-02-22T00:47:43;100942.28;;;19.08;48.84
70555;BME280;58104;52.744;15.242;2023-02-22T00:50:09;100944.51;;;18.92;49.21
70555;BME280;58104;52.744;15.242;2023-02-22T00:52:34;100946.34;;;18.93;49.54
70555;BME280;58104;52.744;15.242;2023-02-22T00:54:59;100943.84;;;18.98;49.63
70555;BME280;58104;52.744;15.242;2023-02-22T00:57:25;100943.21;;;19.01;49.64
70555;BME280;58104;52.744;15.242;2023-02-22T00:59:50;100944.62;;;19.03;49.81
70555;BME280;58104;52.744;15.242;2023-02-22T01:02:16;100946.68;;;18.97;49.91
70555;BME280;58104;52.744;15.242;2023-02-22T01:04:41;100943.52;;;19.01;49.82
70555;BME280;58104;52.744;15.242;2023-02-22T01:07:06;100946.96;;;19.01;49.85
70555;BME280;58104;52.744;15.242;2023-02-22T01:09:32;100950.98;;;18.92;49.99
70555;BME280;58104;52.744;15.242;2023-02-22T01:11:57;100949.17;;;18.94;49.97
70555;BME280;58104;52.744;15.242;2023-02-22T01:14:24;100948.60;;;19.05;50.10
70555;BME280;58104;52.744;15.242;2023-02-22T01:16:49;100950.75;;;18.99;50.07
70555;BME280;58104;52.744;15.242;2023-02-22T01:19:13;100951.45;;;19.04;50.17
70555;BME280;58104;52.744;15.242;2023-02-22T01:21:39;100952.02;;;19.01;50.20
70555;BME280;58104;52.744;15.242;2023-02-22T01:24:05;100952.04;;;19.08;50.29
70555;BME280;58104;52.744;15.242;2023-02-22T01:26:30;100949.64;;;19.08;50.40
70555;BME280;58104;52.744;15.242;2023-02-22T01:28:55;100952.52;;;18.96;50.76
70555;BME280;58104;52.744;15.242;2023-02-22T01:31:20;100948.55;;;19.05;50.73
70555;BME280;58104;52.744;15.242;2023-02-22T01:33:45;100947.76;;;19.03;50.73
70555;BME280;58104;52.744;15.242;2023-02-22T01:36:11;100942.84;;;19.09;50.90
70555;BME280;58104;52.744;15.242;2023-02-22T01:38:36;100945.68;;;19.03;51.01
70555;BME280;58104;52.744;15.242;2023-02-22T01:41:03;100945.38;;;19.12;51.45
70555;BME280;58104;52.744;15.242;2023-02-22T01:43:30;100946.71;;;19.09;51.41
70555;BME280;58104;52.744;15.242;2023-02-22T01:45:57;100945.66;;;19.03;51.60
70555;BME280;58104;52.744;15.242;2023-02-22T01:48:22;100938.91;;;19.06;51.53
70555;BME280;58104;52.744;15.242;2023-02-22T01:50:47;100935.63;;;19.03;51.82
70555;BME280;58104;52.744;15.242;2023-02-22T01:53:11;100935.48;;;19.11;51.79
70555;BME280;58104;52.744;15.242;2023-02-22T01:55:34;100934.39;;;19.01;51.93
70555;BME280;58104;52.744;15.242;2023-02-22T01:58:00;100934.21;;;19.03;51.93
70555;BME280;58104;52.744;15.242;2023-02-22T02:00:25;100935.83;;;19.13;51.92
70555;BME280;58104;52.744;15.242;2023-02-22T02:02:55;100940.49;;;19.02;52.14
70555;BME280;58104;52.744;15.242;2023-02-22T02:05:16;100937.85;;;19.08;52.19
70555;BME280;58104;52.744;15.242;2023-02-22T02:07:41;100937.87;;;19.07;52.35
70555;BME280;58104;52.744;15.242;2023-02-22T02:10:09;100938.22;;;19.05;53.01
70555;BME280;58104;52.744;15.242;2023-02-22T02:12:34;100937.00;;;19.18;53.05
70555;BME280;58104;52.744;15.242;2023-02-22T02:17:22;100938.23;;;19.17;52.93
70555;BME280;58104;52.744;15.242;2023-02-22T02:19:53;100936.48;;;19.12;53.05
70555;BME280;58104;52.744;15.242;2023-02-22T02:22:21;100933.76;;;19.12;53.09
70555;BME280;58104;52.744;15.242;2023-02-22T02:27:11;100935.55;;;19.17;53.09
70555;BME280;58104;52.744;15.242;2023-02-22T02:32:06;100927.56;;;19.17;53.23
70555;BME280;58104;52.744;15.242;2023-02-22T02:34:26;100927.84;;;19.14;53.06
70555;BME280;58104;52.744;15.242;2023-02-22T02:36:51;100932.38;;;19.11;53.24
70555;BME280;58104;52.744;15.242;2023-02-22T02:39:17;100932.93;;;19.15;53.19
70555;BME280;58104;52.744;15.242;2023-02-22T02:41:39;100931.61;;;19.28;53.15
70555;BME280;58104;52.744;15.242;2023-02-22T02:44:04;100927.69;;;19.10;53.36
70555;BME280;58104;52.744;15.242;2023-02-22T02:46:32;100929.23;;;19.15;53.16
70555;BME280;58104;52.744;15.242;2023-02-22T02:48:55;100927.36;;;19.14;53.26
70555;BME280;58104;52.744;15.242;2023-02-22T02:51:19;100930.67;;;19.11;53.09
70555;BME280;58104;52.744;15.242;2023-02-22T02:53:45;100930.19;;;19.17;53.19
70555;BME280;58104;52.744;15.242;2023-02-22T02:56:08;100935.68;;;19.24;53.08
70555;BME280;58104;52.744;15.242;2023-02-22T02:58:43;100937.60;;;19.18;53.33
70555;BME280;58104;52.744;15.242;2023-02-22T03:01:01;100937.15;;;19.15;53.30
70555;BME280;58104;52.744;15.242;2023-02-22T03:03:39;100935.13;;;19.19;53.35
70555;BME280;58104;52.744;15.242;2023-02-22T03:06:00;100934.62;;;19.16;53.31
70555;BME280;58104;52.744;15.242;2023-02-22T03:08:19;100932.06;;;19.22;53.20
70555;BME280;58104;52.744;15.242;2023-02-22T03:10:45;100929.46;;;19.24;53.34
70555;BME280;58104;52.744;15.242;2023-02-22T03:13:11;100930.88;;;19.19;53.59
70555;BME280;58104;52.744;15.242;2023-02-22T03:15:40;100936.71;;;19.17;53.36
70555;BME280;58104;52.744;15.242;2023-02-22T03:18:03;100939.09;;;19.16;53.51
70555;BME280;58104;52.744;15.242;2023-02-22T03:20:28;100940.37;;;19.18;53.52
70555;BME280;58104;52.744;15.242;2023-02-22T03:22:52;100941.25;;;19.09;53.74
70555;BME280;58104;52.744;15.242;2023-02-22T03:25:16;100938.74;;;19.17;53.66
70555;BME280;58104;52.744;15.242;2023-02-22T03:27:42;100935.50;;;19.13;53.76
70555;BME280;58104;52.744;15.242;2023-02-22T03:30:07;100938.14;;;19.17;53.81
70555;BME280;58104;52.744;15.242;2023-02-22T03:32:34;100939.53;;;19.17;53.83
70555;BME280;58104;52.744;15.242;2023-02-22T03:34:57;100935.80;;;19.18;53.99
70555;BME280;58104;52.744;15.242;2023-02-22T03:37:24;100935.09;;;19.18;54.08
70555;BME280;58104;52.744;15.242;2023-02-22T03:39:47;100934.01;;;19.27;53.99
70555;BME280;58104;52.744;15.242;2023-02-22T03:42:15;100937.96;;;19.17;54.09
70555;BME280;58104;52.744;15.242;2023-02-22T03:44:37;100937.10;;;19.16;54.11
70555;BME280;58104;52.744;15.242;2023-02-22T03:47:06;100942.23;;;19.14;54.25
70555;BME280;58104;52.744;15.242;2023-02-22T03:49:32;100946.90;;;19.17;54.12
70555;BME280;58104;52.744;15.242;2023-02-22T03:51:52;100946.40;;;19.19;53.93
70555;BME280;58104;52.744;15.242;2023-02-22T03:54:18;100947.81;;;19.16;54.03
70555;BME280;58104;52.744;15.242;2023-02-22T03:56:49;100957.03;;;19.15;54.00
70555;BME280;58104;52.744;15.242;2023-02-22T03:59:09;100959.31;;;19.10;54.10
70555;BME280;58104;52.744;15.242;2023-02-22T04:01:35;100952.44;;;19.25;54.20
70555;BME280;58104;52.744;15.242;2023-02-22T04:03:59;100949.59;;;19.21;54.14
70555;BME280;58104;52.744;15.242;2023-02-22T04:06:25;100953.96;;;19.11;54.16
70555;BME280;58104;52.744;15.242;2023-02-22T04:08:50;100955.24;;;19.14;54.24
70555;BME280;58104;52.744;15.242;2023-02-22T04:11:16;100960.11;;;19.20;54.28
70555;BME280;58104;52.744;15.242;2023-02-22T04:13:41;100964.69;;;19.14;54.46
70555;BME280;58104;52.744;15.242;2023-02-22T04:16:07;100965.34;;;19.13;54.48
70555;BME280;58104;52.744;15.242;2023-02-22T04:18:32;100966.69;;;19.01;54.45
70555;BME280;58104;52.744;15.242;2023-02-22T04:20:57;100967.92;;;19.05;54.54
70555;BME280;58104;52.744;15.242;2023-02-22T04:23:23;100968.57;;;19.06;54.41
70555;BME280;58104;52.744;15.242;2023-02-22T04:25:48;100966.18;;;19.12;54.45
70555;BME280;58104;52.744;15.242;2023-02-22T04:28:14;100970.98;;;19.04;54.39
70555;BME280;58104;52.744;15.242;2023-02-22T04:30:39;100968.75;;;19.06;54.26
70555;BME280;58104;52.744;15.242;2023-02-22T04:33:04;100969.89;;;19.05;54.34
70555;BME280;58104;52.744;15.242;2023-02-22T04:35:30;100974.36;;;19.02;54.38
70555;BME280;58104;52.744;15.242;2023-02-22T04:37:55;100972.95;;;19.03;54.56
70555;BME280;58104;52.744;15.242;2023-02-22T04:40:21;100974.19;;;19.13;54.36
70555;BME280;58104;52.744;15.242;2023-02-22T04:42:46;100975.22;;;19.20;55.50
70555;BME280;58104;52.744;15.242;2023-02-22T04:45:12;100973.99;;;19.11;54.77
70555;BME280;58104;52.744;15.242;2023-02-22T04:47:37;100976.85;;;19.05;54.76
70555;BME280;58104;52.744;15.242;2023-02-22T04:50:03;100971.63;;;18.90;50.05
70555;BME280;58104;52.744;15.242;2023-02-22T04:52:28;100969.61;;;18.90;47.59
70555;BME280;58104;52.744;15.242;2023-02-22T04:54:54;100969.27;;;18.72;46.31
70555;BME280;58104;52.744;15.242;2023-02-22T04:57:19;100970.78;;;18.76;44.71
70555;BME280;58104;52.744;15.242;2023-02-22T04:59:44;100968.70;;;18.74;43.84
70555;BME280;58104;52.744;15.242;2023-02-22T05:02:10;100966.83;;;18.69;43.59
70555;BME280;58104;52.744;15.242;2023-02-22T05:04:37;100970.63;;;18.74;43.71
70555;BME280;58104;52.744;15.242;2023-02-22T05:07:01;100968.09;;;18.67;43.90
70555;BME280;58104;52.744;15.242;2023-02-22T05:09:26;100968.71;;;18.95;43.43
70555;BME280;58104;52.744;15.242;2023-02-22T05:11:51;100966.49;;;18.96;43.37
70555;BME280;58104;52.744;15.242;2023-02-22T05:14:16;100968.29;;;18.87;43.72
70555;BME280;58104;52.744;15.242;2023-02-22T05:16:42;100966.90;;;18.82;42.76
70555;BME280;58104;52.744;15.242;2023-02-22T05:19:07;100964.83;;;18.76;42.90
70555;BME280;58104;52.744;15.242;2023-02-22T05:21:33;100963.64;;;18.63;42.74
70555;BME280;58104;52.744;15.242;2023-02-22T05:23:58;100964.16;;;18.74;42.05
70555;BME280;58104;52.744;15.242;2023-02-22T05:26:24;100968.59;;;18.72;41.94
70555;BME280;58104;52.744;15.242;2023-02-22T05:28:49;100973.25;;;18.74;42.35
70555;BME280;58104;52.744;15.242;2023-02-22T05:31:15;100972.66;;;18.70;42.46
70555;BME280;58104;52.744;15.242;2023-02-22T05:33:41;100970.23;;;18.73;41.74
70555;BME280;58104;52.744;15.242;2023-02-22T05:36:07;100968.52;;;18.63;42.53
70555;BME280;58104;52.744;15.242;2023-02-22T05:38:31;100970.41;;;18.59;42.58
70555;BME280;58104;52.744;15.242;2023-02-22T05:40:56;100970.83;;;18.66;42.18
70555;BME280;58104;52.744;15.242;2023-02-22T05:43:21;100972.31;;;18.65;42.85
70555;BME280;58104;52.744;15.242;2023-02-22T05:45:47;100973.31;;;18.64;42.37
70555;BME280;58104;52.744;15.242;2023-02-22T05:48:12;100974.56;;;18.60;42.24
70555;BME280;58104;52.744;15.242;2023-02-22T05:50:37;100972.02;;;18.62;42.08
70555;BME280;58104;52.744;15.242;2023-02-22T05:53:03;100972.26;;;18.66;42.67
70555;BME280;58104;52.744;15.242;2023-02-22T05:55:28;100974.92;;;18.71;42.21
70555;BME280;58104;52.744;15.242;2023-02-22T05:57:53;100976.81;;;18.57;42.04
70555;BME280;58104;52.744;15.242;2023-02-22T06:00:21;100980.35;;;18.72;41.64
70555;BME280;58104;52.744;15.242;2023-02-22T06:02:44;100980.84;;;18.68;41.50
70555;BME280;58104;52.744;15.242;2023-02-22T06:05:09;100983.90;;;18.70;41.11
70555;BME280;58104;52.744;15.242;2023-02-22T06:07:35;100982.65;;;18.96;42.37
70555;BME280;58104;52.744;15.242;2023-02-22T06:10:01;100985.44;;;18.67;44.99
70555;BME280;58104;52.744;15.242;2023-02-22T06:12:26;100987.16;;;18.20;45.94
70555;BME280;58104;52.744;15.242;2023-02-22T06:14:52;100990.50;;;18.05;46.47
70555;BME280;58104;52.744;15.242;2023-02-22T06:17:17;100990.61;;;18.07;46.25
70555;BME280;58104;52.744;15.242;2023-02-22T06:19:42;100994.91;;;17.88;46.70
70555;BME280;58104;52.744;15.242;2023-02-22T06:22:15;100994.96;;;18.01;46.64
70555;BME280;58104;52.744;15.242;2023-02-22T06:24:33;100995.31;;;18.01;46.56
70555;BME280;58104;52.744;15.242;2023-02-22T06:27:00;100996.71;;;17.91;46.45
70555;BME280;58104;52.744;15.242;2023-02-22T06:29:25;100997.08;;;18.01;46.39
70555;BME280;58104;52.744;15.242;2023-02-22T06:31:49;101000.42;;;18.00;46.23
70555;BME280;58104;52.744;15.242;2023-02-22T06:34:15;101001.84;;;18.02;46.14
70555;BME280;58104;52.744;15.242;2023-02-22T06:36:40;101004.62;;;18.08;46.01
70555;BME280;58104;52.744;15.242;2023-02-22T06:39:06;101006.53;;;18.24;45.93
70555;BME280;58104;52.744;15.242;2023-02-22T06:41:31;101009.40;;;18.14;45.86
70555;BME280;58104;52.744;15.242;2023-02-22T06:43:57;101012.34;;;18.21;45.69
70555;BME280;58104;52.744;15.242;2023-02-22T06:46:22;101017.45;;;18.26;45.54
70555;BME280;58104;52.744;15.242;2023-02-22T06:48:47;101018.62;;;18.26;45.56
70555;BME280;58104;52.744;15.242;2023-02-22T06:51:13;101016.88;;;18.28;45.42
70555;BME280;58104;52.744;15.242;2023-02-22T06:53:38;101022.79;;;18.33;45.36
70555;BME280;58104;52.744;15.242;2023-02-22T06:56:05;101026.30;;;18.43;45.03
70555;BME280;58104;52.744;15.242;2023-02-22T06:58:29;101032.15;;;18.38;45.11
70555;BME280;58104;52.744;15.242;2023-02-22T07:00:55;101036.62;;;18.47;44.88
70555;BME280;58104;52.744;15.242;2023-02-22T07:03:20;101042.51;;;18.54;44.72
70555;BME280;58104;52.744;15.242;2023-02-22T07:05:45;101044.20;;;18.55;44.61
70555;BME280;58104;52.744;15.242;2023-02-22T07:08:11;101044.28;;;18.53;44.71
70555;BME280;58104;52.744;15.242;2023-02-22T07:10:37;101044.44;;;18.51;44.57
70555;BME280;58104;52.744;15.242;2023-02-22T07:13:03;101042.78;;;18.63;44.47
70555;BME280;58104;52.744;15.242;2023-02-22T07:15:30;101041.24;;;18.55;44.44
70555;BME280;58104;52.744;15.242;2023-02-22T07:17:53;101041.23;;;18.60;44.33
70555;BME280;58104;52.744;15.242;2023-02-22T07:20:19;101042.25;;;18.60;44.23
70555;BME280;58104;52.744;15.242;2023-02-22T07:22:44;101041.14;;;18.59;44.27
70555;BME280;58104;52.744;15.242;2023-02-22T07:25:10;101044.98;;;18.61;44.17
70555;BME280;58104;52.744;15.242;2023-02-22T07:27:35;101046.39;;;18.63;44.15
70555;BME280;58104;52.744;15.242;2023-02-22T07:30:00;101046.29;;;18.65;44.19
70555;BME280;58104;52.744;15.242;2023-02-22T07:32:25;101046.06;;;18.63;44.06
70555;BME280;58104;52.744;15.242;2023-02-22T07:34:51;101050.23;;;18.73;43.93
70555;BME280;58104;52.744;15.242;2023-02-22T07:37:16;101045.19;;;18.61;43.77
70555;BME280;58104;52.744;15.242;2023-02-22T07:39:42;101048.18;;;18.64;43.90
70555;BME280;58104;52.744;15.242;2023-02-22T07:42:07;101047.96;;;18.75;43.71
70555;BME280;58104;52.744;15.242;2023-02-22T07:44:32;101048.33;;;18.82;43.44
70555;BME280;58104;52.744;15.242;2023-02-22T07:46:57;101048.09;;;18.90;43.03
70555;BME280;58104;52.744;15.242;2023-02-22T07:49:22;101049.43;;;19.06;42.82
70555;BME280;58104;52.744;15.242;2023-02-22T07:51:48;101051.22;;;19.09;42.49
70555;BME280;58104;52.744;15.242;2023-02-22T07:54:13;101050.77;;;19.07;42.54
70555;BME280;58104;52.744;15.242;2023-02-22T07:56:44;101055.61;;;19.12;42.34
70555;BME280;58104;52.744;15.242;2023-02-22T07:59:04;101050.59;;;19.09;42.21
70555;BME280;58104;52.744;15.242;2023-02-22T08:01:29;101048.96;;;19.12;42.25
70555;BME280;58104;52.744;15.242;2023-02-22T08:03:55;101051.68;;;19.17;42.02
70555;BME280;58104;52.744;15.242;2023-02-22T08:06:20;101050.12;;;19.21;42.10
70555;BME280;58104;52.744;15.242;2023-02-22T08:08:46;101053.02;;;19.16;42.02
70555;BME280;58104;52.744;15.242;2023-02-22T08:11:11;101055.23;;;19.13;42.08
70555;BME280;58104;52.744;15.242;2023-02-22T08:13:37;101052.39;;;19.19;41.95
70555;BME280;58104;52.744;15.242;2023-02-22T08:16:02;101049.39;;;19.21;41.86
70555;BME280;58104;52.744;15.242;2023-02-22T08:18:27;101050.19;;;19.20;41.84
70555;BME280;58104;52.744;15.242;2023-02-22T08:20:53;101052.29;;;19.27;41.78
70555;BME280;58104;52.744;15.242;2023-02-22T08:23:19;101055.69;;;19.27;41.60
70555;BME280;58104;52.744;15.242;2023-02-22T08:25:43;101057.15;;;19.28;41.48
70555;BME280;58104;52.744;15.242;2023-02-22T08:28:10;101055.31;;;19.21;41.65
70555;BME280;58104;52.744;15.242;2023-02-22T08:30:36;101055.37;;;19.29;41.44
70555;BME280;58104;52.744;15.242;2023-02-22T08:33:00;101054.59;;;19.36;41.44
70555;BME280;58104;52.744;15.242;2023-02-22T08:35:24;101049.55;;;19.63;40.81
70555;BME280;58104;52.744;15.242;2023-02-22T08:37:53;101050.88;;;19.82;40.57
70555;BME280;58104;52.744;15.242;2023-02-22T08:40:17;101048.71;;;19.89;39.98
70555;BME280;58104;52.744;15.242;2023-02-22T08:42:39;101052.43;;;19.97;39.93
70555;BME280;58104;52.744;15.242;2023-02-22T08:45:06;101054.50;;;20.08;39.81
70555;BME280;58104;52.744;15.242;2023-02-22T08:47:30;101055.95;;;20.21;39.41
70555;BME280;58104;52.744;15.242;2023-02-22T08:49:56;101056.98;;;20.43;39.09
70555;BME280;58104;52.744;15.242;2023-02-22T08:52:22;101060.74;;;20.71;38.46
70555;BME280;58104;52.744;15.242;2023-02-22T08:54:47;101064.76;;;20.96;38.25
70555;BME280;58104;52.744;15.242;2023-02-22T08:57:12;101066.53;;;21.22;37.83
70555;BME280;58104;52.744;15.242;2023-02-22T08:59:38;101068.84;;;21.25;37.65
70555;BME280;58104;52.744;15.242;2023-02-22T09:02:03;101069.46;;;21.37;37.61
70555;BME280;58104;52.744;15.242;2023-02-22T09:04:28;101070.34;;;21.52;37.38
70555;BME280;58104;52.744;15.242;2023-02-22T09:06:54;101072.52;;;21.49;37.37
70555;BME280;58104;52.744;15.242;2023-02-22T09:09:19;101070.16;;;21.56;37.28
70555;BME280;58104;52.744;15.242;2023-02-22T09:11:44;101067.36;;;21.58;37.29
70555;BME280;58104;52.744;15.242;2023-02-22T09:14:10;101069.28;;;21.59;37.42
70555;BME280;58104;52.744;15.242;2023-02-22T09:16:35;101074.44;;;21.60;37.19
70555;BME280;58104;52.744;15.242;2023-02-22T09:19:00;101075.41;;;21.60;37.39
70555;BME280;58104;52.744;15.242;2023-02-22T09:21:25;101074.01;;;21.68;37.27
70555;BME280;58104;52.744;15.242;2023-02-22T09:23:50;101071.64;;;21.47;37.18
70555;BME280;58104;52.744;15.242;2023-02-22T09:26:16;101073.48;;;21.54;37.36
70555;BME280;58104;52.744;15.242;2023-02-22T09:28:41;101074.21;;;21.63;37.24
70555;BME280;58104;52.744;15.242;2023-02-22T09:31:07;101077.35;;;21.67;37.04
70555;BME280;58104;52.744;15.242;2023-02-22T09:33:32;101078.31;;;21.64;37.00
70555;BME280;58104;52.744;15.242;2023-02-22T09:35:57;101079.95;;;21.58;36.90
70555;BME280;58104;52.744;15.242;2023-02-22T09:38:23;101077.83;;;21.57;37.22
70555;BME280;58104;52.744;15.242;2023-02-22T09:40:50;101078.52;;;21.67;36.54
70555;BME280;58104;52.744;15.242;2023-02-22T09:43:23;101079.68;;;21.69;36.38
70555;BME280;58104;52.744;15.242;2023-02-22T09:45:48;101079.15;;;21.71;36.34
70555;BME280;58104;52.744;15.242;2023-02-22T09:48:06;101083.34;;;21.64;36.43
70555;BME280;58104;52.744;15.242;2023-02-22T09:50:33;101079.73;;;21.73;36.18
70555;BME280;58104;52.744;15.242;2023-02-22T09:52:59;101077.64;;;21.82;36.15
70555;BME280;58104;52.744;15.242;2023-02-22T09:55:27;101080.19;;;21.88;36.12
70555;BME280;58104;52.744;15.242;2023-02-22T09:57:46;101082.92;;;21.94;36.04
70555;BME280;58104;52.744;15.242;2023-02-22T10:00:16;101078.01;;;21.94;35.58
70555;BME280;58104;52.744;15.242;2023-02-22T10:02:38;101078.47;;;22.00;36.03
70555;BME280;58104;52.744;15.242;2023-02-22T10:05:05;101074.98;;;22.07;36.05
70555;BME280;58104;52.744;15.242;2023-02-22T10:07:31;101071.91;;;22.06;36.00
70555;BME280;58104;52.744;15.242;2023-02-22T10:09:53;101074.08;;;22.13;36.31
70555;BME280;58104;52.744;15.242;2023-02-22T10:12:28;101070.29;;;22.23;36.20
70555;BME280;58104;52.744;15.242;2023-02-22T10:15:04;101071.86;;;22.24;36.34
70555;BME280;58104;52.744;15.242;2023-02-22T10:17:16;101073.16;;;22.15;36.34
70555;BME280;58104;52.744;15.242;2023-02-22T10:19:41;101077.10;;;22.25;36.44
70555;BME280;58104;52.744;15.242;2023-02-22T10:22:11;101077.66;;;22.09;36.51
70555;BME280;58104;52.744;15.242;2023-02-22T10:24:33;101075.83;;;22.26;36.45
70555;BME280;58104;52.744;15.242;2023-02-22T10:26:50;101073.57;;;22.09;36.49
70555;BME280;58104;52.744;15.242;2023-02-22T10:29:18;101073.02;;;22.28;36.42
70555;BME280;58104;52.744;15.242;2023-02-22T10:31:44;101072.86;;;22.16;36.48
70555;BME280;58104;52.744;15.242;2023-02-22T10:34:12;101069.62;;;22.15;36.39
70555;BME280;58104;52.744;15.242;2023-02-22T10:36:31;101071.21;;;22.16;36.36
70555;BME280;58104;52.744;15.242;2023-02-22T10:38:58;101071.73;;;22.27;36.42
70555;BME280;58104;52.744;15.242;2023-02-22T10:41:27;101071.26;;;22.31;36.32
70555;BME280;58104;52.744;15.242;2023-02-22T10:43:46;101066.89;;;22.29;36.48
70555;BME280;58104;52.744;15.242;2023-02-22T10:46:14;101066.34;;;22.26;36.47
70555;BME280;58104;52.744;15.242;2023-02-22T10:48:39;101062.91;;;22.29;36.37
70555;BME280;58104;52.744;15.242;2023-02-22T10:51:05;101058.76;;;22.44;36.23
70555;BME280;58104;52.744;15.242;2023-02-22T10:53:29;101059.01;;;22.37;36.25
70555;BME280;58104;52.744;15.242;2023-02-22T10:58:18;101055.28;;;22.34;36.39
70555;BME280;58104;52.744;15.242;2023-02-22T11:00:44;101055.28;;;22.36;36.35
70555;BME280;58104;52.744;15.242;2023-02-22T11:03:15;101057.32;;;22.39;36.30
70555;BME280;58104;52.744;15.242;2023-02-22T11:05:36;101055.72;;;22.35;36.36
70555;BME280;58104;52.744;15.242;2023-02-22T11:10:30;101052.16;;;22.34;36.35
70555;BME280;58104;52.744;15.242;2023-02-22T11:12:50;101048.15;;;22.37;36.35
70555;BME280;58104;52.744;15.242;2023-02-22T11:15:26;101051.60;;;22.35;36.35
70555;BME280;58104;52.744;15.242;2023-02-22T11:17:41;101046.81;;;22.42;36.33
70555;BME280;58104;52.744;15.242;2023-02-22T11:20:16;101042.93;;;22.26;36.47
70555;BME280;58104;52.744;15.242;2023-02-22T11:22:37;101043.69;;;22.33;36.48
70555;BME280;58104;52.744;15.242;2023-02-22T11:24:59;101044.06;;;22.38;36.40
70555;BME280;58104;52.744;15.242;2023-02-22T11:27:27;101043.16;;;22.34;36.35
70555;BME280;58104;52.744;15.242;2023-02-22T11:29:48;101043.05;;;22.39;36.39
70555;BME280;58104;52.744;15.242;2023-02-22T11:32:16;101038.52;;;22.34;36.38
70555;BME280;58104;52.744;15.242;2023-02-22T11:34:40;101037.42;;;22.32;36.52
70555;BME280;58104;52.744;15.242;2023-02-22T11:39:30;101036.83;;;22.21;36.58
70555;BME280;58104;52.744;15.242;2023-02-22T11:41:55;101032.98;;;22.23;36.67
70555;BME280;58104;52.744;15.242;2023-02-22T11:44:24;101031.69;;;22.18;36.63
70555;BME280;58104;52.744;15.242;2023-02-22T11:46:45;101028.81;;;22.25;36.54
70555;BME280;58104;52.744;15.242;2023-02-22T11:49:12;101026.80;;;22.26;36.51
70555;BME280;58104;52.744;15.242;2023-02-22T11:51:45;101027.29;;;22.29;36.46
70555;BME280;58104;52.744;15.242;2023-02-22T11:54:16;101026.92;;;22.27;36.49
70555;BME280;58104;52.744;15.242;2023-02-22T11:56:32;101022.78;;;22.29;36.43
70555;BME280;58104;52.744;15.242;2023-02-22T11:58:58;101019.81;;;22.30;36.40
70555;BME280;58104;52.744;15.242;2023-02-22T12:01:24;101023.36;;;22.32;36.32
70555;BME280;58104;52.744;15.242;2023-02-22T12:06:17;101018.69;;;22.42;36.23
70555;BME280;58104;52.744;15.242;2023-02-22T12:08:42;101019.53;;;22.46;36.18
70555;BME280;58104;52.744;15.242;2023-02-22T12:11:04;101017.40;;;22.46;36.20
70555;BME280;58104;52.744;15.242;2023-02-22T12:13:36;101024.22;;;22.49;36.19
70555;BME280;58104;52.744;15.242;2023-02-22T12:15:56;101024.34;;;22.54;36.11
70555;BME280;58104;52.744;15.242;2023-02-22T12:18:20;101018.10;;;22.50;36.15
70555;BME280;58104;52.744;15.242;2023-02-22T12:20:44;101015.23;;;22.41;36.32
70555;BME280;58104;52.744;15.242;2023-02-22T12:23:13;101011.55;;;22.47;36.14
70555;BME280;58104;52.744;15.242;2023-02-22T12:25:34;101012.29;;;22.35;36.14
70555;BME280;58104;52.744;15.242;2023-02-22T12:27:59;101014.90;;;22.38;36.21
70555;BME280;58104;52.744;15.242;2023-02-22T12:30:23;101013.24;;;22.29;36.31
70555;BME280;58104;52.744;15.242;2023-02-22T12:32:50;101007.63;;;22.26;36.28
70555;BME280;58104;52.744;15.242;2023-02-22T12:35:18;101009.47;;;22.27;36.30
70555;BME280;58104;52.744;15.242;2023-02-22T12:37:48;101008.87;;;22.33;36.06
70555;BME280;58104;52.744;15.242;2023-02-22T12:40:09;101008.61;;;22.25;36.13
70555;BME280;58104;52.744;15.242;2023-02-22T12:42:33;101005.55;;;22.28;35.92
70555;BME280;58104;52.744;15.242;2023-02-22T12:44:58;101006.21;;;22.30;35.43
70555;BME280;58104;52.744;15.242;2023-02-22T12:47:23;101006.08;;;22.37;35.55